| time (UTC) | temp F | wind direction | speed MPH | gust MPH | rain 1hr in | rain 24hr in | rain mn in | humidity % | barometer mb |
| 20260904093924 | 68 | 187 | 2.0 | 4.0 | 0.00 | 0.00 | 0.00 | 31 | 982.0 |
| 20260904093429 | 69 | 218 | 1.0 | 6.0 | 0.00 | 0.00 | 0.00 | 31 | 981.9 |
| 20260904093423 | 69 | 195 | 1.0 | 4.0 | 0.00 | 0.00 | 0.00 | 31 | 981.9 |
| 20260904093029 | 69 | 225 | 2.0 | 6.0 | 0.00 | 0.00 | 0.00 | 30 | 981.9 |
| 20260904091923 | 69 | 205 | 3.0 | 8.0 | 0.00 | 0.00 | 0.00 | 30 | 981.9 |
| 20260904091422 | 70 | 174 | 4.0 | 9.0 | 0.00 | 0.00 | 0.00 | 30 | 981.8 |
| 20260904090925 | 69 | 205 | 3.0 | 7.0 | 0.00 | 0.00 | 0.00 | 32 | 981.7 |
| 20260904090921 | 69 | 198 | 3.0 | 9.0 | 0.00 | 0.00 | 0.00 | 31 | 981.8 |
| 20260904085922 | 69 | 189 | 2.0 | 4.0 | 0.00 | 0.00 | 0.00 | 32 | 981.7 |
| 20260904085421 | 69 | 202 | 1.0 | 4.0 | 0.00 | 0.00 | 0.00 | 32 | 981.7 |
| 20260904084920 | 69 | 204 | 2.0 | 4.0 | 0.00 | 0.00 | 0.00 | 33 | 981.5 |
| 20260904084419 | 69 | 219 | 2.0 | 6.0 | 0.00 | 0.00 | 0.00 | 33 | 981.5 |
| 20260904083924 | 68 | 213 | 1.0 | 4.0 | 0.00 | 0.00 | 0.00 | 36 | 981.5 |
| 20260904083919 | 69 | 200 | 3.0 | 6.0 | 0.00 | 0.00 | 0.00 | 34 | 981.5 |
| 20260904083419 | 69 | 172 | 2.0 | 5.0 | 0.00 | 0.00 | 0.00 | 34 | 981.5 |
| 20260904082424 | 65 | 199 | 0.0 | 2.0 | 0.00 | 0.00 | 0.00 | 42 | 981.7 |
| 20260904082419 | 66 | 196 | 0.0 | 3.0 | 0.00 | 0.00 | 0.00 | 39 | 981.5 |
| 20260904081419 | 65 | 203 | 0.0 | 0.0 | 0.00 | 0.00 | 0.00 | 44 | 981.7 |
| 20260904080920 | 66 | 203 | 0.0 | 0.0 | 0.00 | 0.00 | 0.00 | 44 | 981.5 |
| 20260904080419 | 68 | 203 | 0.0 | 0.0 | 0.00 | 0.00 | 0.00 | 43 | 981.7 |
| 20260904075919 | 68 | 203 | 1.0 | 5.0 | 0.00 | 0.00 | 0.00 | 41 | 981.7 |
| 20260904075417 | 69 | 199 | 2.0 | 5.0 | 0.00 | 0.00 | 0.00 | 42 | 981.5 |
| 20260904074917 | 69 | 192 | 3.0 | 5.0 | 0.00 | 0.00 | 0.00 | 43 | 981.5 |
| 20260904074417 | 69 | 188 | 3.0 | 7.0 | 0.00 | 0.00 | 0.00 | 44 | 981.5 |
| 20260904073917 | 69 | 200 | 3.0 | 7.0 | 0.00 | 0.00 | 0.00 | 44 | 981.5 |
| 20260904073417 | 69 | 176 | 3.0 | 8.0 | 0.00 | 0.00 | 0.00 | 44 | 981.7 |
| 20260904072922 | 69 | 210 | 3.0 | 8.0 | 0.00 | 0.00 | 0.00 | 44 | 981.7 |
| 20260904072918 | 69 | 205 | 3.0 | 8.0 | 0.00 | 0.00 | 0.00 | 44 | 981.7 |
| 20260904071921 | 69 | 200 | 2.0 | 7.0 | 0.00 | 0.00 | 0.00 | 44 | 981.7 |
| 20260904071917 | 69 | 198 | 3.0 | 7.0 | 0.00 | 0.00 | 0.00 | 44 | 981.8 |
| 20260904070917 | 69 | 142 | 1.0 | 5.0 | 0.00 | 0.00 | 0.00 | 44 | 981.7 |
| 20260904070415 | 70 | 184 | 2.0 | 8.0 | 0.00 | 0.00 | 0.00 | 43 | 981.9 |
| 20260904065915 | 70 | 190 | 4.0 | 8.0 | 0.00 | 0.00 | 0.00 | 42 | 981.9 |
| 20260904065415 | 70 | 214 | 4.0 | 9.0 | 0.00 | 0.00 | 0.00 | 42 | 982.0 |
| 20260904064916 | 71 | 189 | 5.0 | 11.0 | 0.00 | 0.00 | 0.00 | 42 | 982.0 |
| 20260904064415 | 71 | 191 | 5.0 | 11.0 | 0.00 | 0.00 | 0.00 | 42 | 982.0 |
| 20260904063915 | 70 | 205 | 4.0 | 10.0 | 0.00 | 0.00 | 0.00 | 42 | 981.9 |
| 20260904063415 | 70 | 194 | 4.0 | 10.0 | 0.00 | 0.00 | 0.00 | 42 | 981.9 |
| 20260904062915 | 71 | 162 | 5.0 | 10.0 | 0.00 | 0.00 | 0.00 | 41 | 981.9 |
| 20260904062413 | 71 | 215 | 4.0 | 10.0 | 0.00 | 0.00 | 0.00 | 41 | 981.9 |
| 20260904061913 | 71 | 134 | 4.0 | 8.0 | 0.00 | 0.00 | 0.00 | 41 | 981.9 |
| 20260904061411 | 71 | 163 | 4.0 | 11.0 | 0.00 | 0.00 | 0.00 | 41 | 981.9 |
| 20260904060411 | 71 | 213 | 5.0 | 11.0 | 0.00 | 0.00 | 0.00 | 40 | 981.9 |
| 20260904055909 | 71 | 198 | 5.0 | 10.0 | 0.00 | 0.00 | 0.00 | 40 | 981.9 |
| 20260904055407 | 72 | 146 | 5.0 | 13.0 | 0.00 | 0.00 | 0.00 | 40 | 982.0 |
| 20260904054908 | 72 | 191 | 5.0 | 13.0 | 0.00 | 0.00 | 0.00 | 39 | 981.9 |
| 20260904054408 | 72 | 195 | 5.0 | 13.0 | 0.00 | 0.00 | 0.00 | 39 | 982.0 |
| 20260904053908 | 72 | 141 | 5.0 | 13.0 | 0.00 | 0.00 | 0.00 | 39 | 982.0 |
| 20260904053408 | 72 | 154 | 5.0 | 12.0 | 0.00 | 0.00 | 0.00 | 39 | 982.0 |
| 20260904052908 | 72 | 102 | 5.0 | 10.0 | 0.00 | 0.00 | 0.00 | 39 | 982.0 |
| 20260904052408 | 72 | 201 | 4.0 | 10.0 | 0.00 | 0.00 | 0.00 | 39 | 982.1 |
| 20260904051907 | 72 | 188 | 5.0 | 10.0 | 0.00 | 0.00 | 0.00 | 39 | 982.1 |
| 20260904051408 | 72 | 176 | 6.0 | 11.0 | 0.00 | 0.00 | 0.00 | 39 | 982.1 |
| 20260904050908 | 72 | 191 | 6.0 | 12.0 | 0.00 | 0.00 | 0.00 | 39 | 982.1 |
| 20260904050408 | 72 | 140 | 6.0 | 12.0 | 0.00 | 0.00 | 0.00 | 38 | 982.1 |
| 20260904045910 | 72 | 156 | 5.0 | 11.0 | 0.00 | 0.00 | 0.00 | 38 | 982.1 |
| 20260904045906 | 72 | 177 | 5.0 | 11.0 | 0.00 | 0.00 | 0.00 | 38 | 982.1 |
| 20260904045511 | 72 | 158 | 6.0 | 12.0 | 0.00 | 0.00 | 0.00 | 38 | 982.1 |
| 20260904044405 | 72 | 198 | 5.0 | 12.0 | 0.00 | 0.00 | 0.00 | 37 | 982.2 |
| 20260904043905 | 72 | 166 | 3.0 | 9.0 | 0.00 | 0.00 | 0.00 | 37 | 982.4 |
| 20260904043404 | 71 | 188 | 2.0 | 9.0 | 0.00 | 0.00 | 0.00 | 37 | 982.4 |
| 20260904042910 | 69 | 251 | 0.0 | 1.0 | 0.00 | 0.00 | 0.00 | 34 | 982.6 |
| 20260904042904 | 71 | 174 | 1.0 | 8.0 | 0.00 | 0.00 | 0.00 | 36 | 982.5 |
| 20260904042404 | 69 | 200 | 0.0 | 1.0 | 0.00 | 0.00 | 0.00 | 35 | 982.6 |
| 20260904041408 | 70 | 188 | 0.0 | 0.0 | 0.00 | 0.00 | 0.00 | 32 | 982.6 |
| 20260904041404 | 69 | 224 | 0.0 | 1.0 | 0.00 | 0.00 | 0.00 | 33 | 982.6 |
| 20260904040403 | 71 | 188 | 0.0 | 0.0 | 0.00 | 0.00 | 0.00 | 31 | 982.6 |
| 20260904035908 | 72 | 188 | 0.0 | 0.0 | 0.00 | 0.00 | 0.00 | 30 | 982.5 |
| 20260904035904 | 71 | 188 | 0.0 | 0.0 | 0.00 | 0.00 | 0.00 | 30 | 982.5 |
| 20260904034904 | 73 | 188 | 0.0 | 0.0 | 0.00 | 0.00 | 0.00 | 29 | 982.4 |
| 20260904034403 | 73 | 188 | 0.0 | 3.0 | 0.00 | 0.00 | 0.00 | 28 | 982.4 |
| 20260904033904 | 74 | 216 | 1.0 | 6.0 | 0.00 | 0.00 | 0.00 | 28 | 982.2 |
| 20260904033404 | 74 | 203 | 3.0 | 6.0 | 0.00 | 0.00 | 0.00 | 27 | 982.1 |
| 20260904032904 | 74 | 215 | 2.0 | 6.0 | 0.00 | 0.00 | 0.00 | 28 | 982.0 |
| 20260904032403 | 74 | 209 | 2.0 | 5.0 | 0.00 | 0.00 | 0.00 | 28 | 981.9 |
| 20260904031904 | 74 | 192 | 2.0 | 5.0 | 0.00 | 0.00 | 0.00 | 28 | 981.8 |
| 20260904031403 | 74 | 188 | 2.0 | 7.0 | 0.00 | 0.00 | 0.00 | 28 | 981.8 |
| 20260904030904 | 74 | 174 | 3.0 | 8.0 | 0.00 | 0.00 | 0.00 | 28 | 981.7 |
| 20260904030408 | 73 | 186 | 2.0 | 7.0 | 0.00 | 0.00 | 0.00 | 28 | 981.7 |
| 20260904030403 | 74 | 189 | 3.0 | 8.0 | 0.00 | 0.00 | 0.00 | 28 | 981.8 |
| 20260904025403 | 74 | 188 | 3.0 | 6.0 | 0.00 | 0.00 | 0.00 | 28 | 981.7 |
| 20260904024908 | 74 | 155 | 3.0 | 8.0 | 0.00 | 0.00 | 0.00 | 27 | 981.4 |
| 20260904024904 | 74 | 143 | 3.0 | 8.0 | 0.00 | 0.00 | 0.00 | 28 | 981.5 |
| 20260904023903 | 75 | 169 | 4.0 | 8.0 | 0.00 | 0.00 | 0.00 | 27 | 981.4 |
| 20260904023404 | 75 | 195 | 3.0 | 7.0 | 0.00 | 0.00 | 0.00 | 27 | 981.3 |
| 20260904022903 | 75 | 161 | 3.0 | 7.0 | 0.00 | 0.00 | 0.00 | 27 | 981.3 |
| 20260904022403 | 74 | 87 | 3.0 | 6.0 | 0.00 | 0.00 | 0.00 | 27 | 981.2 |
| 20260904021904 | 74 | 158 | 2.0 | 6.0 | 0.00 | 0.00 | 0.00 | 27 | 981.2 |
| 20260904021408 | 75 | 197 | 2.0 | 6.0 | 0.00 | 0.00 | 0.00 | 27 | 981.1 |
| 20260904021403 | 74 | 167 | 2.0 | 5.0 | 0.00 | 0.00 | 0.00 | 27 | 981.1 |
| 20260904020403 | 75 | 158 | 2.0 | 6.0 | 0.00 | 0.00 | 0.00 | 26 | 981.1 |
| 20260904015903 | 76 | 127 | 2.0 | 6.0 | 0.00 | 0.00 | 0.00 | 26 | 981.1 |
| 20260904015409 | 77 | 212 | 1.0 | 7.0 | 0.00 | 0.00 | 0.00 | 25 | 980.8 |
| 20260904015403 | 76 | 115 | 2.0 | 6.0 | 0.00 | 0.00 | 0.00 | 25 | 980.9 |
| 20260904014403 | 77 | 168 | 2.0 | 7.0 | 0.00 | 0.00 | 0.00 | 25 | 980.8 |
| 20260904013907 | 78 | 164 | 2.0 | 6.0 | 0.00 | 0.00 | 0.00 | 24 | 980.7 |
| 20260904013903 | 77 | 181 | 1.0 | 4.0 | 0.00 | 0.00 | 0.00 | 25 | 980.8 |
| 20260904012904 | 78 | 158 | 3.0 | 6.0 | 0.00 | 0.00 | 0.00 | 24 | 980.7 |
| 20260904012402 | 78 | 198 | 3.0 | 5.0 | 0.00 | 0.00 | 0.00 | 24 | 980.6 |
| 20260904011904 | 79 | 169 | 3.0 | 6.0 | 0.00 | 0.00 | 0.00 | 24 | 980.6 |
| 20260904011408 | 80 | 162 | 2.0 | 5.0 | 0.00 | 0.00 | 0.00 | 24 | 980.6 |
| 20260904011403 | 79 | 212 | 2.0 | 6.0 | 0.00 | 0.00 | 0.00 | 24 | 980.6 |
| 20260904010901 | 80 | 186 | 3.0 | 5.0 | 0.00 | 0.00 | 0.00 | 23 | 980.6 |
| 20260904005905 | 82 | 196 | 3.0 | 11.0 | 0.00 | 0.00 | 0.00 | 22 | 980.6 |
| 20260904005901 | 81 | 157 | 3.0 | 7.0 | 0.00 | 0.00 | 0.00 | 23 | 980.6 |
| 20260904004901 | 83 | 120 | 4.0 | 11.0 | 0.00 | 0.00 | 0.00 | 21 | 980.6 |
| 20260904004401 | 84 | 136 | 3.0 | 8.0 | 0.00 | 0.00 | 0.00 | 21 | 980.6 |
| 20260904003859 | 84 | 168 | 3.0 | 12.0 | 0.00 | 0.00 | 0.00 | 21 | 980.6 |
| 20260904003359 | 85 | 195 | 5.0 | 12.0 | 0.00 | 0.00 | 0.00 | 20 | 980.6 |
| 20260904002859 | 85 | 167 | 4.0 | 11.0 | 0.00 | 0.00 | 0.00 | 20 | 980.6 |
| 20260904002400 | 85 | 165 | 4.0 | 13.0 | 0.00 | 0.00 | 0.00 | 20 | 980.6 |
| 20260904001859 | 85 | 138 | 4.0 | 13.0 | 0.00 | 0.00 | 0.00 | 21 | 980.6 |
| 20260904001404 | 86 | 182 | 3.0 | 11.0 | 0.00 | 0.00 | 0.00 | 20 | 980.7 |
| 20260904001400 | 86 | 223 | 4.0 | 11.0 | 0.00 | 0.00 | 0.00 | 20 | 980.6 |
| 20260904000359 | 87 | 151 | 5.0 | 11.0 | 0.00 | 0.00 | 0.00 | 20 | 980.6 |
| 20260903235859 | 87 | 113 | 5.0 | 12.0 | 0.00 | 0.00 | 0.00 | 19 | 980.6 |
| 20260903235358 | 87 | 193 | 5.0 | 12.0 | 0.00 | 0.00 | 0.00 | 20 | 980.7 |
| 20260903234902 | 87 | 186 | 5.0 | 10.0 | 0.00 | 0.00 | 0.00 | 18 | 980.7 |
| 20260903234858 | 87 | 205 | 5.0 | 11.0 | 0.00 | 0.00 | 0.00 | 18 | 980.7 |
| 20260903233857 | 88 | 207 | 5.0 | 11.0 | 0.00 | 0.00 | 0.00 | 18 | 980.7 |
| 20260903233357 | 88 | 172 | 5.0 | 11.0 | 0.00 | 0.00 | 0.00 | 18 | 980.7 |
| 20260903232858 | 89 | 155 | 3.0 | 9.0 | 0.00 | 0.00 | 0.00 | 18 | 980.6 |
| 20260903232357 | 89 | 167 | 3.0 | 8.0 | 0.00 | 0.00 | 0.00 | 16 | 980.7 |
| 20260903231857 | 88 | 200 | 4.0 | 12.0 | 0.00 | 0.00 | 0.00 | 15 | 980.6 |
| 20260903231401 | 88 | 160 | 6.0 | 13.0 | 0.00 | 0.00 | 0.00 | 14 | 980.6 |
| 20260903231357 | 88 | 219 | 6.0 | 13.0 | 0.00 | 0.00 | 0.00 | 14 | 980.7 |
| 20260903230356 | 88 | 200 | 4.0 | 12.0 | 0.00 | 0.00 | 0.00 | 13 | 980.6 |
| 20260903225857 | 88 | 148 | 5.0 | 12.0 | 0.00 | 0.00 | 0.00 | 13 | 980.7 |
| 20260903225357 | 88 | 210 | 6.0 | 12.0 | 0.00 | 0.00 | 0.00 | 13 | 980.8 |
| 20260903224857 | 88 | 243 | 6.0 | 16.0 | 0.00 | 0.00 | 0.00 | 13 | 980.8 |
| 20260903224357 | 88 | 204 | 7.0 | 16.0 | 0.00 | 0.00 | 0.00 | 13 | 980.8 |
| 20260903223858 | 88 | 220 | 6.0 | 12.0 | 0.00 | 0.00 | 0.00 | 13 | 980.8 |
| 20260903223357 | 88 | 210 | 4.0 | 12.0 | 0.00 | 0.00 | 0.00 | 14 | 980.8 |
| 20260903222857 | 88 | 228 | 3.0 | 11.0 | 0.00 | 0.00 | 0.00 | 14 | 980.9 |
| 20260903222357 | 88 | 205 | 3.0 | 11.0 | 0.00 | 0.00 | 0.00 | 14 | 981.1 |
| 20260903221857 | 87 | 224 | 3.0 | 14.0 | 0.00 | 0.00 | 0.00 | 16 | 980.9 |
| 20260903221357 | 87 | 230 | 4.0 | 14.0 | 0.00 | 0.00 | 0.00 | 16 | 981.1 |
| 20260903220857 | 88 | 207 | 3.0 | 10.0 | 0.00 | 0.00 | 0.00 | 16 | 981.3 |
| 20260903220355 | 87 | 235 | 5.0 | 13.0 | 0.00 | 0.00 | 0.00 | 15 | 981.3 |
| 20260903215858 | 87 | 200 | 6.0 | 15.0 | 0.00 | 0.00 | 0.00 | 15 | 981.3 |
| 20260903215854 | 88 | 206 | 5.0 | 15.0 | 0.00 | 0.00 | 0.00 | 16 | 981.4 |
| 20260903214857 | 87 | 226 | 5.0 | 13.0 | 0.00 | 0.00 | 0.00 | 16 | 981.4 |
| 20260903214853 | 88 | 172 | 5.0 | 13.0 | 0.00 | 0.00 | 0.00 | 16 | 981.3 |
| 20260903213853 | 87 | 212 | 6.0 | 15.0 | 0.00 | 0.00 | 0.00 | 16 | 981.4 |
| 20260903213352 | 88 | 214 | 5.0 | 15.0 | 0.00 | 0.00 | 0.00 | 16 | 981.4 |
| 20260903212851 | 88 | 223 | 5.0 | 11.0 | 0.00 | 0.00 | 0.00 | 18 | 981.4 |
| 20260903212348 | 87 | 149 | 4.0 | 11.0 | 0.00 | 0.00 | 0.00 | 18 | 981.4 |
| 20260903211852 | 87 | 207 | 4.0 | 10.0 | 0.00 | 0.00 | 0.00 | 18 | 981.5 |
| 20260903211848 | 87 | 210 | 6.0 | 13.0 | 0.00 | 0.00 | 0.00 | 16 | 981.5 |
| 20260903210851 | 88 | 192 | 3.0 | 12.0 | 0.00 | 0.00 | 0.00 | 17 | 981.7 |
| 20260903210847 | 88 | 196 | 5.0 | 13.0 | 0.00 | 0.00 | 0.00 | 17 | 981.7 |
| 20260903205847 | 87 | 224 | 4.0 | 12.0 | 0.00 | 0.00 | 0.00 | 18 | 981.8 |
| 20260903205348 | 87 | 188 | 5.0 | 12.0 | 0.00 | 0.00 | 0.00 | 19 | 981.9 |
| 20260903204849 | 87 | 214 | 5.0 | 11.0 | 0.00 | 0.00 | 0.00 | 18 | 982.0 |
| 20260903204845 | 87 | 216 | 5.0 | 12.0 | 0.00 | 0.00 | 0.00 | 19 | 981.9 |
| 20260903203843 | 87 | 207 | 5.0 | 14.0 | 0.00 | 0.00 | 0.00 | 17 | 982.1 |
| 20260903203343 | 87 | 205 | 3.0 | 14.0 | 0.00 | 0.00 | 0.00 | 18 | 982.1 |
| 20260903202840 | 87 | 105 | 4.0 | 13.0 | 0.00 | 0.00 | 0.00 | 18 | 982.1 |
| 20260903202341 | 86 | 257 | 6.0 | 13.0 | 0.00 | 0.00 | 0.00 | 18 | 982.2 |
| 20260903201841 | 87 | 164 | 6.0 | 13.0 | 0.00 | 0.00 | 0.00 | 18 | 982.1 |
| 20260903201345 | 86 | 217 | 2.0 | 8.0 | 0.00 | 0.00 | 0.00 | 20 | 982.0 |
| 20260903201341 | 87 | 235 | 4.0 | 13.0 | 0.00 | 0.00 | 0.00 | 19 | 982.1 |
| 20260903200345 | 86 | 321 | 3.0 | 10.0 | 0.00 | 0.00 | 0.00 | 19 | 982.4 |
| 20260903200341 | 86 | 153 | 2.0 | 9.0 | 0.00 | 0.00 | 0.00 | 19 | 982.1 |
| 20260903195840 | 86 | 303 | 3.0 | 9.0 | 0.00 | 0.00 | 0.00 | 19 | 982.2 |
| 20260903194841 | 86 | 253 | 3.0 | 10.0 | 0.00 | 0.00 | 0.00 | 18 | 982.4 |
| 20260903194341 | 86 | 198 | 3.0 | 9.0 | 0.00 | 0.00 | 0.00 | 19 | 982.4 |
| 20260903193841 | 85 | 207 | 3.0 | 10.0 | 0.00 | 0.00 | 0.00 | 19 | 982.5 |
| 20260903193340 | 85 | 242 | 3.0 | 14.0 | 0.00 | 0.00 | 0.00 | 19 | 982.6 |
| 20260903192840 | 85 | 274 | 4.0 | 14.0 | 0.00 | 0.00 | 0.00 | 19 | 982.6 |
| 20260903192340 | 85 | 283 | 5.0 | 13.0 | 0.00 | 0.00 | 0.00 | 18 | 982.7 |
| 20260903191840 | 85 | 200 | 5.0 | 14.0 | 0.00 | 0.00 | 0.00 | 19 | 982.7 |
| 20260903191340 | 85 | 210 | 4.0 | 14.0 | 0.00 | 0.00 | 0.00 | 19 | 982.8 |
| 20260903190840 | 84 | 131 | 4.0 | 10.0 | 0.00 | 0.00 | 0.00 | 20 | 982.7 |
| 20260903190341 | 85 | 185 | 4.0 | 11.0 | 0.00 | 0.00 | 0.00 | 19 | 983.1 |
| 20260903185840 | 84 | 232 | 4.0 | 11.0 | 0.00 | 0.00 | 0.00 | 20 | 983.1 |
| 20260903185340 | 84 | 173 | 6.0 | 13.0 | 0.00 | 0.00 | 0.00 | 20 | 983.2 |
| 20260903184841 | 85 | 206 | 6.0 | 13.0 | 0.00 | 0.00 | 0.00 | 20 | 983.3 |
| 20260903184341 | 84 | 119 | 4.0 | 10.0 | 0.00 | 0.00 | 0.00 | 20 | 983.2 |
| 20260903183841 | 84 | 195 | 6.0 | 13.0 | 0.00 | 0.00 | 0.00 | 22 | 983.3 |
| 20260903183344 | 83 | 204 | 6.0 | 14.0 | 0.00 | 0.00 | 0.00 | 21 | 983.4 |
| 20260903183340 | 84 | 191 | 7.0 | 14.0 | 0.00 | 0.00 | 0.00 | 20 | 983.4 |
| 20260903182341 | 83 | 202 | 4.0 | 12.0 | 0.00 | 0.00 | 0.00 | 21 | 983.4 |
| 20260903181841 | 83 | 196 | 3.0 | 9.0 | 0.00 | 0.00 | 0.00 | 23 | 983.5 |
| 20260903181345 | 82 | 165 | 4.0 | 11.0 | 0.00 | 0.00 | 0.00 | 23 | 983.9 |
| 20260903181341 | 82 | 171 | 2.0 | 9.0 | 0.00 | 0.00 | 0.00 | 22 | 983.7 |
| 20260903180839 | 83 | 304 | 4.0 | 11.0 | 0.00 | 0.00 | 0.00 | 23 | 983.7 |
| 20260903175839 | 83 | 192 | 3.0 | 10.0 | 0.00 | 0.00 | 0.00 | 23 | 984.0 |
| 20260903175336 | 82 | 277 | 3.0 | 10.0 | 0.00 | 0.00 | 0.00 | 22 | 984.0 |
| 20260903174837 | 82 | 186 | 3.0 | 10.0 | 0.00 | 0.00 | 0.00 | 22 | 984.0 |
| 20260903174337 | 82 | 275 | 2.0 | 10.0 | 0.00 | 0.00 | 0.00 | 23 | 984.0 |
| 20260903173837 | 83 | 202 | 1.0 | 7.0 | 0.00 | 0.00 | 0.00 | 24 | 984.0 |
| 20260903173335 | 82 | 148 | 1.0 | 7.0 | 0.00 | 0.00 | 0.00 | 25 | 984.1 |
| 20260903172838 | 80 | 239 | 4.0 | 10.0 | 0.00 | 0.00 | 0.00 | 24 | 984.3 |
| 20260903172834 | 81 | 140 | 2.0 | 8.0 | 0.00 | 0.00 | 0.00 | 24 | 984.0 |
| 20260903171831 | 80 | 257 | 3.0 | 10.0 | 0.00 | 0.00 | 0.00 | 24 | 984.3 |
| 20260903171330 | 80 | 216 | 1.0 | 8.0 | 0.00 | 0.00 | 0.00 | 25 | 984.3 |
| 20260903170830 | 80 | 231 | 2.0 | 8.0 | 0.00 | 0.00 | 0.00 | 26 | 984.3 |
| 20260903170330 | 80 | 305 | 2.0 | 6.0 | 0.00 | 0.00 | 0.00 | 26 | 984.4 |
| 20260903165830 | 79 | 321 | 2.0 | 12.0 | 0.00 | 0.00 | 0.00 | 25 | 984.3 |
| 20260903165330 | 79 | 244 | 3.0 | 12.0 | 0.00 | 0.00 | 0.00 | 25 | 984.4 |
| 20260903164830 | 79 | 253 | 3.0 | 9.0 | 0.00 | 0.00 | 0.00 | 25 | 984.4 |
| 20260903164330 | 79 | 210 | 3.0 | 14.0 | 0.00 | 0.00 | 0.00 | 25 | 984.4 |
| 20260903163831 | 79 | 217 | 3.0 | 14.0 | 0.00 | 0.00 | 0.00 | 25 | 984.4 |
| 20260903163330 | 78 | 190 | 3.0 | 9.0 | 0.00 | 0.00 | 0.00 | 27 | 984.3 |
| 20260903162830 | 78 | 217 | 2.0 | 10.0 | 0.00 | 0.00 | 0.00 | 26 | 984.3 |
| 20260903162330 | 78 | 291 | 4.0 | 10.0 | 0.00 | 0.00 | 0.00 | 27 | 984.3 |
| 20260903161830 | 78 | 236 | 4.0 | 10.0 | 0.00 | 0.00 | 0.00 | 27 | 984.3 |
| 20260903161330 | 78 | 213 | 3.0 | 10.0 | 0.00 | 0.00 | 0.00 | 28 | 984.3 |
| 20260903160834 | 77 | 225 | 5.0 | 9.0 | 0.00 | 0.00 | 0.00 | 29 | 984.3 |
| 20260903160830 | 77 | 221 | 4.0 | 10.0 | 0.00 | 0.00 | 0.00 | 30 | 984.4 |
| 20260903155830 | 77 | 190 | 5.0 | 11.0 | 0.00 | 0.00 | 0.00 | 29 | 984.4 |
| 20260903155336 | 77 | 202 | 6.0 | 12.0 | 0.00 | 0.00 | 0.00 | 30 | 984.4 |
| 20260903155331 | 76 | 174 | 6.0 | 12.0 | 0.00 | 0.00 | 0.00 | 30 | 984.4 |
| 20260903154331 | 77 | 162 | 5.0 | 10.0 | 0.00 | 0.00 | 0.00 | 30 | 984.3 |
| 20260903153830 | 76 | 221 | 5.0 | 10.0 | 0.00 | 0.00 | 0.00 | 31 | 984.4 |
| 20260903153329 | 76 | 212 | 5.0 | 10.0 | 0.00 | 0.00 | 0.00 | 31 | 984.4 |
| 20260903152828 | 75 | 219 | 5.0 | 10.0 | 0.00 | 0.00 | 0.00 | 31 | 984.4 |
| 20260903152328 | 75 | 229 | 5.0 | 11.0 | 0.00 | 0.00 | 0.00 | 32 | 984.4 |
| 20260903151828 | 75 | 161 | 5.0 | 11.0 | 0.00 | 0.00 | 0.00 | 32 | 984.4 |
| 20260903151333 | 74 | 220 | 5.0 | 10.0 | 0.00 | 0.00 | 0.00 | 32 | 984.4 |
| 20260903150829 | 74 | 214 | 5.0 | 10.0 | 0.00 | 0.00 | 0.00 | 33 | 984.5 |
| 20260903150328 | 74 | 202 | 5.0 | 11.0 | 0.00 | 0.00 | 0.00 | 33 | 984.6 |
| 20260903145828 | 73 | 205 | 5.0 | 11.0 | 0.00 | 0.00 | 0.00 | 33 | 984.6 |
| 20260903145330 | 73 | 231 | 3.0 | 10.0 | 0.00 | 0.00 | 0.00 | 33 | 984.6 |
| 20260903145326 | 73 | 246 | 3.0 | 10.0 | 0.00 | 0.00 | 0.00 | 35 | 984.5 |
| 20260903144326 | 72 | 188 | 4.0 | 11.0 | 0.00 | 0.00 | 0.00 | 35 | 984.5 |
| 20260903143826 | 71 | 198 | 3.0 | 11.0 | 0.00 | 0.00 | 0.00 | 36 | 984.5 |
| 20260903143330 | 70 | 199 | 2.0 | 6.0 | 0.00 | 0.00 | 0.00 | 38 | 984.5 |
| 20260903143326 | 71 | 212 | 2.0 | 7.0 | 0.00 | 0.00 | 0.00 | 37 | 984.6 |
| 20260903142326 | 70 | 221 | 1.0 | 6.0 | 0.00 | 0.00 | 0.00 | 38 | 984.6 |
| 20260903141825 | 69 | 175 | 1.0 | 6.0 | 0.00 | 0.00 | 0.00 | 38 | 984.5 |
| 20260903141326 | 69 | 173 | 2.0 | 6.0 | 0.00 | 0.00 | 0.00 | 39 | 984.5 |
| 20260903140826 | 68 | 157 | 1.0 | 4.0 | 0.00 | 0.00 | 0.00 | 39 | 984.5 |
| 20260903140326 | 68 | 202 | 1.0 | 4.0 | 0.00 | 0.00 | 0.00 | 39 | 984.5 |
| 20260903135826 | 67 | 195 | 1.0 | 5.0 | 0.00 | 0.00 | 0.00 | 40 | 984.4 |
| 20260903135326 | 67 | 200 | 2.0 | 5.0 | 0.00 | 0.00 | 0.00 | 40 | 984.4 |
| 20260903134826 | 67 | 198 | 1.0 | 4.0 | 0.00 | 0.00 | 0.00 | 41 | 984.5 |
| 20260903134329 | 65 | 195 | 0.0 | 3.0 | 0.00 | 0.00 | 0.00 | 41 | 984.4 |
| 20260903134325 | 66 | 195 | 1.0 | 3.0 | 0.00 | 0.00 | 0.00 | 41 | 984.4 |
| 20260903133326 | 65 | 226 | 0.0 | 3.0 | 0.00 | 0.00 | 0.00 | 42 | 984.3 |
| 20260903132831 | 64 | 203 | 0.0 | 2.0 | 0.00 | 0.00 | 0.00 | 43 | 984.1 |
| 20260903132826 | 65 | 214 | 1.0 | 3.0 | 0.00 | 0.00 | 0.00 | 42 | 984.3 |
| 20260903132326 | 64 | 217 | 0.0 | 2.0 | 0.00 | 0.00 | 0.00 | 43 | 984.3 |
| 20260903131933 | 64 | 246 | 0.0 | 1.0 | 0.00 | 0.00 | 0.00 | 43 | 984.0 |
| 20260903130826 | 63 | 206 | 0.0 | 1.0 | 0.00 | 0.00 | 0.00 | 44 | 984.0 |
| 20260903130325 | 63 | 198 | 0.0 | 1.0 | 0.00 | 0.00 | 0.00 | 44 | 984.0 |
| 20260903125826 | 62 | 186 | 0.0 | 0.0 | 0.00 | 0.00 | 0.00 | 44 | 984.0 |
| 20260903125324 | 62 | 204 | 0.0 | 1.0 | 0.00 | 0.00 | 0.00 | 44 | 983.9 |
| 20260903124824 | 62 | 222 | 0.0 | 1.0 | 0.00 | 0.00 | 0.00 | 45 | 983.8 |
| 20260903124325 | 62 | 266 | 0.0 | 1.0 | 0.00 | 0.00 | 0.00 | 45 | 983.8 |
| 20260903123824 | 61 | 212 | 0.0 | 1.0 | 0.00 | 0.00 | 0.00 | 45 | 983.8 |
| 20260903123327 | 61 | 223 | 0.0 | 0.0 | 0.00 | 0.00 | 0.00 | 45 | 983.7 |
| 20260903123323 | 61 | 223 | 0.0 | 0.0 | 0.00 | 0.00 | 0.00 | 46 | 983.7 |
| 20260903122322 | 61 | 229 | 0.0 | 0.0 | 0.00 | 0.00 | 0.00 | 46 | 983.4 |
| 20260903121826 | 60 | 225 | 0.0 | 0.0 | 0.00 | 0.00 | 0.00 | 47 | 983.4 |
| 20260903121822 | 61 | 223 | 0.0 | 0.0 | 0.00 | 0.00 | 0.00 | 46 | 983.3 |
| 20260903120821 | 61 | 234 | 0.0 | 1.0 | 0.00 | 0.00 | 0.00 | 46 | 983.3 |
| 20260903120320 | 61 | 234 | 0.0 | 1.0 | 0.00 | 0.00 | 0.00 | 46 | 983.3 |
| 20260903115820 | 62 | 219 | 0.0 | 3.0 | 0.00 | 0.00 | 0.00 | 45 | 983.3 |
| 20260903115320 | 62 | 219 | 0.0 | 3.0 | 0.00 | 0.00 | 0.00 | 45 | 983.3 |
| 20260903114820 | 62 | 255 | 0.0 | 1.0 | 0.00 | 0.00 | 0.00 | 45 | 983.3 |
| 20260903114319 | 61 | 158 | 0.0 | 1.0 | 0.00 | 0.00 | 0.00 | 47 | 983.3 |
| 20260903113820 | 60 | 205 | 0.0 | 2.0 | 0.00 | 0.00 | 0.00 | 48 | 983.3 |
| 20260903113320 | 59 | 203 | 0.0 | 2.0 | 0.00 | 0.00 | 0.00 | 50 | 983.3 |
| 20260903112819 | 58 | 229 | 0.0 | 1.0 | 0.00 | 0.00 | 0.00 | 53 | 983.3 |
| 20260903112320 | 57 | 205 | 0.0 | 1.0 | 0.00 | 0.00 | 0.00 | 55 | 983.3 |
| 20260903111819 | 56 | 210 | 0.0 | 0.0 | 0.00 | 0.00 | 0.00 | 57 | 983.4 |
| 20260903111319 | 54 | 210 | 0.0 | 0.0 | 0.00 | 0.00 | 0.00 | 62 | 983.3 |
| 20260903110819 | 53 | 160 | 0.0 | 0.0 | 0.00 | 0.00 | 0.00 | 67 | 983.3 |
| 20260903110324 | 53 | 160 | 0.0 | 0.0 | 0.00 | 0.00 | 0.00 | 67 | 983.3 |
| 20260903110320 | 53 | 160 | 0.0 | 0.0 | 0.00 | 0.00 | 0.00 | 67 | 983.3 |
| 20260903105319 | 53 | 160 | 0.0 | 0.0 | 0.00 | 0.00 | 0.00 | 66 | 983.4 |
| 20260903104820 | 54 | 158 | 0.0 | 0.0 | 0.00 | 0.00 | 0.00 | 65 | 983.3 |
| 20260903104317 | 54 | 158 | 0.0 | 0.0 | 0.00 | 0.00 | 0.00 | 64 | 983.3 |
| 20260903103817 | 54 | 158 | 0.0 | 0.0 | 0.00 | 0.00 | 0.00 | 65 | 983.3 |
| 20260903103318 | 53 | 158 | 0.0 | 0.0 | 0.00 | 0.00 | 0.00 | 68 | 983.3 |
| 20260903102821 | 53 | 160 | 0.0 | 0.0 | 0.00 | 0.00 | 0.00 | 70 | 983.3 |
| 20260903102817 | 54 | 158 | 0.0 | 0.0 | 0.00 | 0.00 | 0.00 | 69 | 983.2 |
| 20260903101817 | 53 | 141 | 0.0 | 0.0 | 0.00 | 0.00 | 0.00 | 71 | 983.3 |
| 20260903101318 | 53 | 165 | 0.0 | 0.0 | 0.00 | 0.00 | 0.00 | 72 | 983.2 |
| 20260903100818 | 53 | 356 | 0.0 | 1.0 | 0.00 | 0.00 | 0.00 | 71 | 983.2 |
| 20260903100315 | 53 | 356 | 0.0 | 1.0 | 0.00 | 0.00 | 0.00 | 72 | 983.1 |
| 20260903095815 | 53 | 228 | 0.0 | 0.0 | 0.00 | 0.00 | 0.00 | 73 | 983.1 |
| 20260903095316 | 53 | 193 | 0.0 | 0.0 | 0.00 | 0.00 | 0.00 | 73 | 983.2 |
| 20260903094815 | 54 | 252 | 0.0 | 0.0 | 0.00 | 0.00 | 0.00 | 73 | 983.2 |
| 20260903094315 | 54 | 212 | 0.0 | 0.0 | 0.00 | 0.00 | 0.00 | 73 | 983.2 |